Terminal Aerodrome Forecast
Issued by NWS

Home | Current Version | Previous Version | Text Only | Print | Product List | Glossary On
Versions: 1 2 3 4 5 6 7 8 9 10 11 12 13 14 15 16 17 18 19 20 21 22 23 24 25 26 27 28 29 30 31 32 33 34 35
000
FTAK31 PAFA 300830 AAA
TAFASC
TAF AMD
PASC 300830Z 3009/3106 01008KT 1SM BR BKN002 BKN100
     FM301100 07012KT 4SM BR SCT015 BKN020 OVC050
     FM301600 06012KT 2SM BR BKN007 OVC015=

USA.gov is the U.S. government's official web portal to all federal, state and local government web resources and services.